Latest Weather Observations for Redcliffe

IDQ60901

Issued at 11:11 pm EST Saturday 19 August 2017 (issued every 10 minutes, with the page automatically refreshed every 10 minutes)

About weather observations | Map of Brisbane area stations | Latest observations for Brisbane area | Other Formats
Station Details ID: 040958 Name: REDCLIFFE Lat: -27.22 Lon: 153.09 Height: 12.6 m
Data from the previous 72 hours. | See also: Recent months at Redcliffe
Date/Time
EST
Temp
°C
App
Temp
°C
Dew
Point
°C
Rel
Hum
%
Delta-T
°C
Wind Press
QNH
hPa
Press
MSL
hPa
Rain since
9am
mm
Dir  Spd
km/h
Gust
km/h
Spd
kts
Gust
kts
19/11:00pm 13.0 - -4.6 29 6.6 - - - - - 1018.3 1018.3 0.0
19/10:30pm 13.4 - -4.7 28 6.8 - - - - - 1018.3 1018.3 0.0
19/10:00pm 13.8 - -4.8 27 7.0 - - - - - 1018.4 1018.4 0.0
19/09:30pm 14.0 - -5.2 26 7.2 - - - - - 1018.1 1018.1 0.0
19/09:00pm 14.4 - -4.8 26 7.2 - - - - - 1017.9 1017.9 0.0
19/08:30pm 15.1 9.2 -5.3 24 7.7 W 17 20 9 11 1017.6 1017.6 0.0
19/08:00pm 15.4 9.9 -5.6 23 7.9 W 15 24 8 13 1017.3 1017.3 0.0
19/07:30pm 15.6 9.7 -5.4 23 7.9 W 17 22 9 12 1016.9 1016.9 0.0
19/07:00pm 15.9 10.7 -6.4 21 8.3 W 13 19 7 10 1016.6 1016.6 0.0
19/06:30pm 16.2 10.6 -6.1 21 8.4 W 15 22 8 12 1016.1 1016.1 0.0
19/06:00pm 16.5 11.3 -6.5 20 8.6 W 13 22 7 12 1015.8 1015.8 0.0
19/05:30pm 17.1 11.1 -6.7 19 8.9 WSW 17 28 9 15 1015.2 1015.2 0.0
19/05:00pm 17.8 10.5 -6.8 18 9.2 WSW 24 39 13 21 1014.5 1014.5 0.0
19/04:30pm 18.3 10.6 -6.4 18 9.4 WSW 26 43 14 23 1014.0 1014.0 0.0
19/04:00pm 18.9 10.9 -5.9 18 9.6 WSW 28 48 15 26 1013.9 1013.9 0.0
19/03:43pm 19.1 10.7 -5.7 18 9.7 WSW 30 48 16 26 1013.7 1013.7 0.0
19/03:30pm 19.1 11.1 -5.7 18 9.7 WSW 28 41 15 22 1013.5 1013.5 0.0
19/03:00pm 19.3 11.1 -4.2 20 9.5 WSW 30 48 16 26 1013.4 1013.4 0.0
19/02:42pm 19.3 10.7 -4.2 20 9.5 WSW 32 50 17 27 1013.4 1013.4 0.0
19/02:30pm 19.2 11.2 -5.7 18 9.7 WSW 28 41 15 22 1013.5 1013.5 0.0
19/02:00pm 19.1 10.2 -5.0 19 9.5 WSW 33 52 18 28 1013.4 1013.4 0.0
19/01:46pm 19.1 11.1 -5.7 18 9.7 WSW 28 50 15 27 1013.7 1013.7 0.0
19/01:30pm 19.4 11.5 -4.8 19 9.6 WSW 28 44 15 24 1013.8 1013.8 0.0
19/01:00pm 19.0 10.7 -5.1 19 9.5 WSW 30 48 16 26 1014.2 1014.2 0.0
19/12:47pm 18.5 10.1 -6.2 18 9.5 WSW 30 48 16 26 1014.3 1014.3 0.0
19/12:30pm 18.7 10.0 -4.7 20 9.3 WSW 32 44 17 24 1014.5 1014.5 0.0
19/12:00pm 18.2 10.2 -5.8 19 9.2 WSW 28 41 15 22 1015.0 1015.0 0.0
19/11:44am 18.6 10.6 -5.4 19 9.4 WSW 28 46 15 25 1015.2 1015.2 0.0
19/11:30am 18.3 10.8 -5.0 20 9.1 WSW 26 39 14 21 1015.5 1015.5 0.0
19/11:00am 18.2 10.3 -4.5 21 9.0 WSW 28 52 15 28 1015.9 1015.9 0.0
19/10:52am 17.7 9.8 -4.3 22 8.7 WSW 28 52 15 28 1016.0 1016.0 0.0
19/10:30am 16.9 9.7 -4.9 22 8.4 W 24 37 13 20 1016.3 1016.3 0.0
19/10:00am 17.2 10.7 -2.4 26 8.0 W 22 33 12 18 1017.1 1017.1 0.0
19/09:30am 15.7 9.0 -4.2 25 7.7 W 22 33 12 18 1017.2 1017.2 0.0
19/09:00am 15.3 9.0 -3.6 27 7.4 WSW 20 32 11 17 1017.3 1017.3 0.0
19/08:30am 15.3 - -2.6 29 7.2 - - - - - 1017.5 1017.5 0.0
19/08:00am 14.6 - -3.2 29 7.0 - - - - - 1017.6 1017.6 0.0
19/07:30am 13.9 - -3.4 30 6.7 - - - - - 1017.4 1017.4 0.0
19/07:00am 13.2 - -3.5 31 6.4 - - - - - 1017.4 1017.4 0.0
19/06:30am 12.9 - -3.8 31 6.3 - - - - - 1017.1 1017.1 0.0
19/06:00am 13.2 - -3.1 32 6.3 - - - - - 1016.7 1016.7 0.0
19/05:30am 13.0 - -3.3 32 6.3 - - - - - 1016.6 1016.6 0.0
19/05:00am 13.6 - -3.2 31 6.5 - - - - - 1016.2 1016.2 0.0
19/04:30am 13.7 - -3.1 31 6.5 - - - - - 1016.1 1016.1 0.0
19/04:00am 14.5 - -3.3 29 6.9 - - - - - 1016.0 1016.0 0.0
19/03:30am 14.5 - -2.8 30 6.8 - - - - - 1015.9 1015.9 0.0
19/03:00am 14.7 - -3.1 29 7.0 - - - - - 1015.9 1015.9 0.0
19/02:30am 15.1 10.3 -2.8 29 7.1 W 13 17 7 9 1016.0 1016.0 0.0
19/02:00am 15.4 10.5 -3.0 28 7.3 W 13 19 7 10 1016.1 1016.1 0.0
19/01:30am 15.7 10.9 -2.7 28 7.4 W 13 19 7 10 1016.3 1016.3 0.0
19/01:00am 16.3 11.5 -2.2 28 7.5 WSW 13 17 7 9 1016.5 1016.5 0.0
19/12:30am 16.2 11.4 -2.3 28 7.5 W 13 19 7 10 1016.4 1016.4 0.0
19/12:00am 17.2 12.5 -1.9 27 7.9 WSW 13 19 7 10 1016.3 1016.3 0.0
 
Date/Time
EST
Temp
°C
App
Temp
°C
Dew
Point
°C
Rel
Hum
%
Delta-T
°C
Wind Press
QNH
hPa
Press
MSL
hPa
Rain since
9am
mm
Dir  Spd
km/h
Gust
km/h
Spd
kts
Gust
kts
18/11:30pm 17.7 12.9 -2.5 25 8.3 W 13 20 7 11 1016.3 1016.3 0.0
18/11:00pm 17.4 13.0 -2.3 26 8.1 W 11 15 6 8 1016.4 1016.4 0.0
18/10:30pm 18.0 14.0 -2.3 25 8.4 W 9 15 5 8 1016.3 1016.3 0.0
18/10:00pm 18.7 14.6 -2.8 23 8.9 W 9 19 5 10 1016.2 1016.2 0.0
18/09:30pm 18.4 13.2 -3.1 23 8.8 WSW 15 26 8 14 1016.0 1016.0 0.0
18/09:00pm 18.9 14.0 -3.3 22 9.1 W 13 24 7 13 1015.7 1015.7 0.0
18/08:30pm 19.0 14.8 -3.8 21 9.2 W 9 13 5 7 1015.5 1015.5 0.0
18/08:00pm 19.9 15.3 -4.4 19 9.8 W 11 17 6 9 1015.2 1015.2 0.0
18/07:30pm 20.1 15.8 -4.9 18 10.0 W 9 15 5 8 1014.9 1014.9 0.0
18/07:00pm 20.8 14.9 -5.9 16 10.5 WSW 17 26 9 14 1014.5 1014.5 0.0
18/06:30pm 21.4 15.8 -6.3 15 10.9 W 15 26 8 14 1014.1 1014.1 0.0
18/06:00pm 21.8 17.1 -5.1 16 10.9 WSW 11 19 6 10 1013.6 1013.6 0.0
18/05:30pm 21.8 16.0 -5.1 16 10.9 WSW 17 28 9 15 1013.2 1013.2 0.0
18/05:00pm 23.4 16.9 -5.6 14 11.8 WSW 20 33 11 18 1012.6 1012.6 0.0
18/04:30pm 24.1 16.1 -6.0 13 12.3 WSW 28 46 15 25 1012.0 1012.0 0.0
18/04:26pm 24.2 16.1 -7.0 12 12.5 WSW 28 46 15 25 1011.9 1011.9 0.0
18/04:00pm 25.0 18.1 -6.3 12 12.8 WSW 22 33 12 18 1011.5 1011.5 0.0
18/03:30pm 25.6 18.5 -4.8 13 12.9 W 24 33 13 18 1011.4 1011.4 0.0
18/03:00pm 25.7 18.9 -4.7 13 12.9 WSW 22 37 12 20 1011.1 1011.1 0.0
18/02:30pm 25.5 18.3 -4.9 13 12.8 W 24 41 13 22 1011.4 1011.4 0.0
18/02:00pm 25.8 18.9 -2.8 15 12.6 WSW 24 35 13 19 1011.6 1011.6 0.0
18/01:35pm 25.5 17.7 -3.9 14 12.6 W 28 48 15 26 1011.7 1011.7 0.0
18/01:30pm 25.4 17.9 -5.0 13 12.8 W 26 37 14 20 1011.7 1011.7 0.0
18/01:14pm 25.4 17.6 -4.0 14 12.6 W 28 46 15 25 1011.9 1011.9 0.0
18/01:00pm 25.2 17.4 -4.2 14 12.5 W 28 41 15 22 1012.2 1012.2 0.0
18/12:30pm 25.2 18.3 -2.4 16 12.2 W 24 39 13 21 1012.6 1012.6 0.0
18/12:00pm 24.0 16.4 -2.5 17 11.5 W 28 39 15 21 1013.1 1013.1 0.0
18/11:30am 23.9 17.4 -2.6 17 11.5 WSW 22 33 12 18 1013.7 1013.7 0.0
18/11:00am 23.2 15.7 -1.7 19 10.9 WSW 28 41 15 22 1014.2 1014.2 0.0
18/10:30am 22.8 14.2 -2.7 18 10.9 WSW 33 52 18 28 1014.6 1014.6 0.0
18/10:17am 23.1 15.7 -0.4 21 10.6 WSW 28 46 15 25 1014.9 1014.9 0.0
18/10:00am 22.7 15.0 -2.8 18 10.9 W 28 41 15 22 1015.2 1015.2 0.0
18/09:30am 22.6 15.0 -2.2 19 10.7 WSW 28 48 15 26 1015.3 1015.3 0.0
18/09:27am 22.6 15.1 -1.5 20 10.6 W 28 48 15 26 1015.4 1015.4 0.0
18/09:00am 22.0 14.9 -1.3 21 10.2 WSW 26 37 14 20 1015.5 1015.5 0.0
18/08:30am 21.0 15.0 1.3 27 9.0 W 22 33 12 18 1015.5 1015.5 0.0
18/08:00am 19.8 15.1 0.8 28 8.5 WNW 15 19 8 10 1015.3 1015.3 0.0
18/07:30am 18.5 13.4 0.6 30 7.9 WNW 17 22 9 12 1015.0 1015.0 0.0
18/07:00am 17.3 12.2 0.5 32 7.3 WNW 17 24 9 13 1014.7 1014.7 0.0
18/06:30am 16.5 11.1 1.0 35 6.8 WNW 19 24 10 13 1014.5 1014.5 0.0
18/06:00am 17.0 11.9 1.0 34 7.0 WNW 17 22 9 12 1014.3 1014.3 0.0
18/05:30am 17.1 12.1 1.5 35 6.9 WNW 17 20 9 11 1013.9 1013.9 0.0
18/05:00am 17.9 13.3 1.4 33 7.4 WNW 15 19 8 10 1013.5 1013.5 0.0
18/04:30am 18.1 13.5 1.6 33 7.4 WNW 15 20 8 11 1013.1 1013.1 0.0
18/04:00am 18.8 14.2 1.8 32 7.7 W 15 19 8 10 1012.9 1012.9 0.0
18/03:30am 19.2 14.8 2.6 33 7.7 W 15 19 8 10 1012.7 1012.7 0.0
18/03:00am 19.5 15.4 2.4 32 7.9 W 13 17 7 9 1012.7 1012.7 0.0
18/02:30am 20.0 15.9 2.4 31 8.2 WSW 13 19 7 10 1012.7 1012.7 0.0
18/02:00am 20.3 16.3 2.6 31 8.3 WSW 13 17 7 9 1012.7 1012.7 0.0
18/01:30am 20.8 16.8 3.1 31 8.4 W 13 15 7 8 1012.6 1012.6 0.0
18/01:00am 20.0 16.3 4.5 36 7.5 W 13 19 7 10 1012.7 1012.7 0.0
18/12:30am 21.5 17.3 3.7 31 8.6 W 15 20 8 11 1012.8 1012.8 0.0
18/12:00am 20.9 16.6 5.3 36 7.7 WSW 17 24 9 13 1012.9 1012.9 0.0
 
Date/Time
EST
Temp
°C
App
Temp
°C
Dew
Point
°C
Rel
Hum
%
Delta-T
°C
Wind Press
QNH
hPa
Press
MSL
hPa
Rain since
9am
mm
Dir  Spd
km/h
Gust
km/h
Spd
kts
Gust
kts
17/11:30pm 20.3 16.8 7.3 43 6.6 SW 15 20 8 11 1012.8 1012.8 0.0
17/11:00pm 20.4 17.6 8.7 47 6.1 WSW 13 15 7 8 1012.4 1012.4 0.0
17/10:30pm 21.2 19.3 9.1 46 6.4 W 9 11 5 6 1012.3 1012.3 0.0
17/10:00pm 21.7 20.5 10.2 48 6.3 W 7 11 4 6 1012.1 1012.1 0.0
17/09:30pm 21.6 21.0 12.2 55 5.3 WNW 7 11 4 6 1012.0 1012.0 0.0
17/09:00pm 20.5 20.7 14.6 69 3.5 N 7 11 4 6 1011.7 1011.7 0.0
17/08:30pm 20.5 22.6 16.3 77 2.5 CALM 0 7 0 4 1011.6 1011.6 0.0
17/08:00pm 20.7 22.3 16.9 79 2.3 N 4 13 2 7 1011.3 1011.3 0.0
17/07:30pm 20.9 22.0 17.1 79 2.3 N 7 9 4 5 1011.0 1011.0 0.0
17/07:00pm 21.5 22.8 17.5 78 2.5 N 7 11 4 6 1010.5 1010.5 0.0
17/06:30pm 22.2 22.8 17.8 76 2.7 N 11 13 6 7 1009.9 1009.9 0.0
17/06:00pm 22.6 23.0 17.3 72 3.3 NNE 11 13 6 7 1009.4 1009.3 0.0
17/05:30pm 23.4 23.0 17.2 68 3.8 NNE 15 17 8 9 1008.9 1008.8 0.0
17/05:00pm 25.0 25.0 16.2 58 5.4 NNE 11 17 6 9 1008.5 1008.4 0.0
17/04:30pm 25.4 24.0 16.5 58 5.5 NNE 19 24 10 13 1008.0 1007.9 0.0
17/04:00pm 25.8 24.3 16.4 56 5.8 NNE 19 26 10 14 1008.0 1007.9 0.0
17/03:30pm 26.5 23.2 16.1 52 6.4 NNE 28 32 15 17 1007.7 1007.6 0.0
17/03:00pm 30.4 25.9 11.4 31 11.0 NNE 26 32 14 17 1007.6 1007.5 0.0
17/02:30pm 29.6 25.5 11.6 33 10.4 NNE 24 32 13 17 1007.8 1007.7 0.0
17/02:00pm 29.5 27.1 13.7 38 9.5 NNE 19 26 10 14 1008.1 1008.0 0.0
17/01:30pm 30.0 25.4 11.0 31 10.9 NNE 26 28 14 15 1008.6 1008.5 0.0
17/01:00pm 30.3 26.3 9.2 27 11.8 NNE 20 28 11 15 1008.9 1008.8 0.0
17/12:30pm 30.0 26.4 10.0 29 11.3 WNW 19 26 10 14 1009.3 1009.2 0.0
17/12:00pm 30.0 27.0 10.5 30 11.1 NNW 17 28 9 15 1009.8 1009.7 0.0
17/11:30am 29.1 26.2 9.8 30 10.8 WNW 15 26 8 14 1010.5 1010.5 0.0
17/11:00am 28.7 25.5 9.9 31 10.6 NNW 17 26 9 14 1011.1 1011.1 0.0
17/10:30am 27.5 26.4 13.1 41 8.5 NNW 11 15 6 8 1011.7 1011.7 0.0
17/10:00am 26.7 24.9 13.4 43 7.8 NNW 15 22 8 12 1012.2 1012.2 0.0
17/09:30am 24.5 23.8 15.4 57 5.5 N 13 17 7 9 1012.3 1012.3 0.0
17/09:00am 23.0 22.3 15.3 62 4.6 NNE 13 13 7 7 1012.6 1012.6 0.0
17/08:30am 22.2 24.0 15.5 66 4.0 CALM 0 0 0 0 1012.6 1012.6 0.0
17/08:00am 21.1 21.8 17.1 78 2.4 N 9 13 5 7 1012.4 1012.4 0.0
17/07:30am 19.8 20.1 17.0 84 1.7 N 11 13 6 7 1012.2 1012.2 0.0
17/07:00am 17.5 16.8 15.5 88 1.2 N 13 15 7 8 1012.1 1012.1 0.0
17/06:30am 17.0 16.9 15.0 88 1.2 N 9 13 5 7 1012.0 1012.0 0.0
17/06:00am 16.7 16.8 14.5 87 1.3 NNE 7 9 4 5 1011.8 1011.8 0.0
17/05:30am 17.4 19.0 14.9 85 1.4 CALM 0 0 0 0 1011.2 1011.2 0.0
17/05:00am 18.2 18.7 15.6 85 1.5 N 7 9 4 5 1010.9 1010.9 0.0
17/04:30am 18.5 18.4 15.9 85 1.5 N 11 15 6 8 1010.7 1010.7 0.0
17/04:00am 18.6 19.3 16.0 85 1.5 N 7 11 4 6 1010.5 1010.5 0.0
17/03:30am 18.7 18.3 16.3 86 1.4 N 13 17 7 9 1010.4 1010.4 0.0
17/03:00am 18.9 18.6 16.5 86 1.4 N 13 17 7 9 1010.4 1010.4 0.0
17/02:30am 19.0 18.7 16.4 85 1.6 N 13 15 7 8 1010.6 1010.6 0.0
17/02:00am 19.1 18.4 16.3 84 1.7 N 15 19 8 10 1011.0 1011.0 0.0
17/01:30am 19.3 18.3 16.5 84 1.7 NNW 17 22 9 12 1011.0 1011.0 0.0
17/01:00am 19.3 17.6 16.3 83 1.8 N 20 28 11 15 1011.3 1011.3 0.0
17/12:30am 19.6 18.0 16.4 82 1.9 N 20 28 11 15 1011.5 1011.5 0.0
17/12:00am 19.7 18.1 16.5 82 1.9 N 20 28 11 15 1011.6 1011.6 0.0
 
Date/Time
EST
Temp
°C
App
Temp
°C
Dew
Point
°C
Rel
Hum
%
Delta-T
°C
Wind Press
QNH
hPa
Press
MSL
hPa
Rain since
9am
mm
Dir  Spd
km/h
Gust
km/h
Spd
kts
Gust
kts
16/11:30pm 19.9 18.3 16.5 81 2.0 N 20 28 11 15 1011.7 1011.7 0.0

Latest Capital City Observations: Canberra | Sydney | Melbourne | Brisbane | Adelaide | Perth | Hobart | Darwin

Other Formats:

Comma delimited format used in spreadsheet applications
http://www.bom.gov.au/fwo/IDQ60901/IDQ60901.95591.axf

JavaScript Object Notation format (JSON) in row-major order
http://www.bom.gov.au/fwo/IDQ60901/IDQ60901.95591.json